createdAt,value
2022-10-06T00:01:02.922Z,86.16
2022-10-06T00:02:06.202Z,86.03
2022-10-06T00:03:09.584Z,87.11
2022-10-06T00:04:12.981Z,86.98
2022-10-06T00:05:15.689Z,86.92
2022-10-06T00:06:19.265Z,87.05
2022-10-06T00:07:23.536Z,86.40
2022-10-06T00:08:26.393Z,86.01
2022-10-06T00:09:31.748Z,86.49
2022-10-06T00:10:34.939Z,86.65
2022-10-06T00:11:38.743Z,85.99
2022-10-06T00:12:43.454Z,85.83
2022-10-06T00:13:46.409Z,85.84
2022-10-06T00:14:50.632Z,85.92
2022-10-06T00:15:53.601Z,85.89
2022-10-06T00:16:57.124Z,86.25
2022-10-06T00:17:59.695Z,86.34
2022-10-06T00:19:03.188Z,86.15
2022-10-06T00:20:08.527Z,86.38
2022-10-06T00:21:11.881Z,86.21
2022-10-06T00:22:15.420Z,86.16
2022-10-06T00:23:17.847Z,86.05
2022-10-06T00:24:23.536Z,85.83
2022-10-06T00:25:28.824Z,86.23
2022-10-06T00:26:34.210Z,86.16
2022-10-06T00:27:39.803Z,86.34
2022-10-06T00:28:44.506Z,86.28
2022-10-06T00:29:49.218Z,85.97
2022-10-06T00:30:55.672Z,86.11
2022-10-06T00:32:00.393Z,86.37
2022-10-06T00:33:12.163Z,86.16
2022-10-06T00:34:15.560Z,85.88
2022-10-06T00:35:19.588Z,85.95
2022-10-06T00:36:22.885Z,85.79
2022-10-06T00:37:27.007Z,86.11
2022-10-06T00:38:30.938Z,86.80
2022-10-06T00:39:33.921Z,85.96
2022-10-06T00:40:39.933Z,86.13
2022-10-06T00:41:45.675Z,86.08
2022-10-06T00:42:51.746Z,86.75
2022-10-06T00:44:00.055Z,87.06
2022-10-06T00:45:05.117Z,87.17
2022-10-06T00:46:22.139Z,87.61
2022-10-06T00:47:26.885Z,87.23
2022-10-06T00:48:32.410Z,86.85
2022-10-06T00:49:38.881Z,86.79
2022-10-06T00:50:42.085Z,87.76
2022-10-06T00:51:52.154Z,87.05
2022-10-06T00:52:55.243Z,87.37
2022-10-06T00:53:58.955Z,87.51
2022-10-06T00:55:05.625Z,87.76
2022-10-06T00:56:09.528Z,87.40
2022-10-06T00:57:12.992Z,87.31
2022-10-06T00:58:18.144Z,87.36
2022-10-06T00:59:21.608Z,86.88
2022-10-06T01:00:25.002Z,87.21
2022-10-06T01:01:32.667Z,88.46
2022-10-06T01:02:53.554Z,88.29
2022-10-06T01:03:58.910Z,88.08
2022-10-06T01:05:06.847Z,87.66
2022-10-06T01:06:12.048Z,87.58
2022-10-06T01:07:17.029Z,86.94
2022-10-06T01:08:23.138Z,87.57
2022-10-06T01:09:27.507Z,87.36
2022-10-06T01:10:30.079Z,87.48
2022-10-06T01:11:35.573Z,88.33
2022-10-06T01:12:39.496Z,87.83
2022-10-06T01:13:45.130Z,88.89
2022-10-06T01:14:48.802Z,88.69
2022-10-06T01:15:54.024Z,88.63
2022-10-06T01:17:01.654Z,88.66
2022-10-06T01:18:06.617Z,89.22
2022-10-06T01:19:12.643Z,89.00
2022-10-06T01:20:18.268Z,88.48
2022-10-06T01:21:25.797Z,88.34
2022-10-06T01:22:34.007Z,88.75
2022-10-06T01:23:38.464Z,88.58
2022-10-06T01:24:43.095Z,88.42
2022-10-06T01:25:46.599Z,88.78
2022-10-06T01:26:51.486Z,88.40
2022-10-06T01:27:55.248Z,88.46
2022-10-06T01:29:01.135Z,88.85
2022-10-06T01:30:06.967Z,89.17
2022-10-06T01:31:10.763Z,88.77
2022-10-06T01:32:14.544Z,88.97
2022-10-06T01:33:18.015Z,89.11
2022-10-06T01:34:23.320Z,89.55
2022-10-06T01:35:27.044Z,89.45
2022-10-06T01:36:31.384Z,89.72
2022-10-06T01:37:35.980Z,89.07
2022-10-06T01:38:40.030Z,89.24
2022-10-06T01:39:44.290Z,89.51
2022-10-06T01:40:48.015Z,89.66
2022-10-06T01:41:50.790Z,89.57
2022-10-06T01:42:54.712Z,90.25
2022-10-06T01:43:58.415Z,90.22
2022-10-06T01:45:05.054Z,90.54
2022-10-06T01:46:08.624Z,90.44
2022-10-06T01:47:14.060Z,90.76
2022-10-06T01:48:17.548Z,90.91
2022-10-06T01:49:19.920Z,90.80
2022-10-06T01:50:30.822Z,90.88
2022-10-06T01:51:34.147Z,91.52
2022-10-06T01:52:38.474Z,91.63
2022-10-06T01:53:41.877Z,92.14
2022-10-06T01:54:45.487Z,92.18
2022-10-06T01:55:48.889Z,91.96
2022-10-06T01:56:53.115Z,91.89
2022-10-06T01:57:57.453Z,92.08
2022-10-06T01:59:00.656Z,92.18
2022-10-06T02:00:04.474Z,91.85
2022-10-06T02:01:11.090Z,91.77
2022-10-06T02:02:16.174Z,91.88
2022-10-06T02:03:19.688Z,92.09
2022-10-06T02:04:23.057Z,92.37
2022-10-06T02:05:26.690Z,92.88
2022-10-06T02:06:30.700Z,92.34
2022-10-06T02:07:34.847Z,92.82
2022-10-06T02:08:38.885Z,93.00
2022-10-06T02:09:43.722Z,93.02
2022-10-06T02:10:47.566Z,93.36
2022-10-06T02:11:55.760Z,94.04
2022-10-06T02:13:00.100Z,93.29
2022-10-06T02:14:05.478Z,92.94
2022-10-06T02:15:11.469Z,92.74
2022-10-06T02:16:16.723Z,92.78
2022-10-06T02:17:19.773Z,92.49
2022-10-06T02:18:25.236Z,92.52
2022-10-06T02:19:32.411Z,93.37
2022-10-06T02:20:35.709Z,94.02
2022-10-06T02:21:42.249Z,93.41
2022-10-06T02:22:46.802Z,93.16
2022-10-06T02:23:50.025Z,93.04
2022-10-06T02:24:53.906Z,92.25
2022-10-06T02:26:03.677Z,92.20
2022-10-06T02:27:09.495Z,91.94
2022-10-06T02:28:13.547Z,92.50
2022-10-06T02:29:16.918Z,91.93
2022-10-06T02:30:22.861Z,91.69
2022-10-06T02:31:26.715Z,91.78
2022-10-06T02:32:37.078Z,92.86
2022-10-06T02:33:40.894Z,92.53
2022-10-06T02:34:44.563Z,91.93
2022-10-06T02:35:47.898Z,92.51
2022-10-06T02:36:53.673Z,93.10
2022-10-06T02:37:57.065Z,92.91
2022-10-06T02:39:00.331Z,93.59
2022-10-06T02:40:04.292Z,92.54
2022-10-06T02:41:11.590Z,92.96
2022-10-06T02:42:15.262Z,92.20
2022-10-06T02:43:21.194Z,91.98
2022-10-06T02:44:27.127Z,92.05
2022-10-06T02:45:34.004Z,91.39
2022-10-06T02:46:39.403Z,90.73
2022-10-06T02:47:44.703Z,91.45
2022-10-06T02:48:49.148Z,91.30
2022-10-06T02:49:52.759Z,91.45
2022-10-06T02:51:01.264Z,91.30
2022-10-06T02:52:03.621Z,91.26
2022-10-06T02:53:08.171Z,90.71
2022-10-06T02:54:12.550Z,90.20
2022-10-06T02:55:17.919Z,90.20
2022-10-06T02:56:22.778Z,90.43
2022-10-06T02:57:25.558Z,90.35
2022-10-06T02:58:30.944Z,90.22
2022-10-06T02:59:37.243Z,90.01
2022-10-06T03:00:40.553Z,89.66
2022-10-06T03:01:44.209Z,90.07
2022-10-06T03:02:49.533Z,90.31
2022-10-06T03:03:54.496Z,90.34
2022-10-06T03:04:58.015Z,90.48
2022-10-06T03:06:01.301Z,91.35
2022-10-06T03:07:04.911Z,92.66
2022-10-06T03:08:11.042Z,92.59
2022-10-06T03:09:13.697Z,92.08
2022-10-06T03:10:18.466Z,92.84
2022-10-06T03:11:25.522Z,92.48
2022-10-06T03:12:29.027Z,92.64
2022-10-06T03:13:34.088Z,93.01
2022-10-06T03:14:37.804Z,93.29
2022-10-06T03:15:44.489Z,93.51
2022-10-06T03:16:48.930Z,93.58
2022-10-06T03:17:54.284Z,93.47
2022-10-06T03:18:58.505Z,93.87
2022-10-06T03:20:01.279Z,93.65
2022-10-06T03:21:04.679Z,93.96
2022-10-06T03:22:08.090Z,94.27
2022-10-06T03:23:20.533Z,94.39
2022-10-06T03:24:23.980Z,95.02
2022-10-06T03:25:29.083Z,95.44
2022-10-06T03:26:34.018Z,95.03
2022-10-06T03:27:37.251Z,95.61
2022-10-06T03:28:42.986Z,95.12
2022-10-06T03:29:46.726Z,94.92
2022-10-06T03:30:50.743Z,95.18
2022-10-06T03:31:55.841Z,95.53
2022-10-06T03:33:03.511Z,95.97
2022-10-06T03:34:08.063Z,95.97
2022-10-06T03:35:11.641Z,95.87
2022-10-06T03:36:18.609Z,95.92
2022-10-06T03:37:21.488Z,95.65
2022-10-06T03:38:25.155Z,95.66
2022-10-06T03:39:30.535Z,95.46
2022-10-06T03:40:35.563Z,95.38
2022-10-06T03:41:39.381Z,95.45
2022-10-06T03:42:42.678Z,95.43
2022-10-06T03:43:47.007Z,95.53
2022-10-06T03:44:50.347Z,95.89
2022-10-06T03:45:57.998Z,95.38
2022-10-06T03:47:01.850Z,95.17
2022-10-06T03:48:06.992Z,95.14
2022-10-06T03:49:10.105Z,94.81
2022-10-06T03:50:14.304Z,94.51
2022-10-06T03:51:21.970Z,94.01
2022-10-06T03:52:26.223Z,95.15
2022-10-06T03:53:31.619Z,95.00
2022-10-06T03:54:37.427Z,94.72
2022-10-06T03:55:40.824Z,94.96
2022-10-06T03:56:44.630Z,95.08
2022-10-06T03:57:47.550Z,95.22
2022-10-06T03:59:02.712Z,94.99
2022-10-06T04:00:08.797Z,95.23
2022-10-06T04:01:20.078Z,95.05
2022-10-06T04:02:26.981Z,95.95
2022-10-06T04:03:30.634Z,95.94
2022-10-06T04:04:33.920Z,95.66
2022-10-06T04:05:44.119Z,96.00
2022-10-06T04:06:49.585Z,95.08
2022-10-06T04:07:56.133Z,95.25
2022-10-06T04:08:59.657Z,94.56
2022-10-06T04:10:07.572Z,94.26
2022-10-06T04:11:15.669Z,93.99
2022-10-06T04:12:18.209Z,93.91
2022-10-06T04:13:25.345Z,93.65
2022-10-06T04:14:28.966Z,93.85
2022-10-06T04:15:33.316Z,94.06
2022-10-06T04:16:40.648Z,94.07
2022-10-06T04:17:45.131Z,93.55
2022-10-06T04:18:51.772Z,93.68
2022-10-06T04:19:55.483Z,94.26
2022-10-06T04:21:01.598Z,94.17
2022-10-06T04:22:05.301Z,94.37
2022-10-06T04:23:12.150Z,93.90
2022-10-06T04:24:17.445Z,93.83
2022-10-06T04:25:23.036Z,93.94
2022-10-06T04:26:28.002Z,93.71
2022-10-06T04:27:31.288Z,94.00
2022-10-06T04:28:39.413Z,93.66
2022-10-06T04:29:43.100Z,93.71
2022-10-06T04:30:48.184Z,93.94
2022-10-06T04:31:51.871Z,93.71
2022-10-06T04:33:02.311Z,94.11
2022-10-06T04:34:06.951Z,94.53
2022-10-06T04:35:11.014Z,94.56
2022-10-06T04:36:15.648Z,94.65
2022-10-06T04:37:18.395Z,94.27
2022-10-06T04:38:22.329Z,93.95
2022-10-06T04:39:25.926Z,94.19
2022-10-06T04:40:29.546Z,92.95
2022-10-06T04:41:33.260Z,92.79
2022-10-06T04:42:38.830Z,91.93
2022-10-06T04:43:45.599Z,91.86
2022-10-06T04:44:48.892Z,92.22
2022-10-06T04:46:13.075Z,92.47
2022-10-06T04:47:07.800Z,93.60
2022-10-06T04:48:12.932Z,92.93
2022-10-06T04:49:20.024Z,92.50
2022-10-06T04:50:21.761Z,91.89
2022-10-06T04:51:31.473Z,91.68
2022-10-06T04:52:36.302Z,91.50
2022-10-06T04:53:41.735Z,91.17
2022-10-06T04:54:44.876Z,90.90
2022-10-06T04:55:49.741Z,91.05
2022-10-06T04:56:53.353Z,90.71
2022-10-06T04:57:58.735Z,90.79
2022-10-06T04:59:04.947Z,91.27
2022-10-06T05:00:28.937Z,92.61
2022-10-06T05:01:34.423Z,92.44
2022-10-06T05:02:39.805Z,91.94
2022-10-06T05:03:44.356Z,91.84
2022-10-06T05:04:48.072Z,91.47
2022-10-06T05:05:54.012Z,91.66
2022-10-06T05:06:56.960Z,91.88
2022-10-06T05:08:02.861Z,91.57
2022-10-06T05:09:06.841Z,91.82
2022-10-06T05:10:11.950Z,92.34
2022-10-06T05:11:18.106Z,92.57
2022-10-06T05:12:22.633Z,92.23
2022-10-06T05:14:37.242Z,91.07
2022-10-06T05:15:42.275Z,89.04
2022-10-06T05:16:46.543Z,86.88
2022-10-06T05:17:53.010Z,84.10
2022-10-06T05:18:56.406Z,83.43
2022-10-06T05:19:59.626Z,83.16
2022-10-06T05:21:06.759Z,82.95
2022-10-06T05:22:10.157Z,83.13
2022-10-06T05:23:15.427Z,84.12
2022-10-06T05:24:18.934Z,84.95
2022-10-06T05:25:22.554Z,85.97
2022-10-06T05:26:32.094Z,86.19
2022-10-06T05:27:38.617Z,85.03
2022-10-06T05:28:41.971Z,84.44
2022-10-06T05:29:49.201Z,84.07
2022-10-06T05:31:01.698Z,85.04
2022-10-06T05:32:09.459Z,83.56
2022-10-06T05:33:14.547Z,83.14
2022-10-06T05:34:20.049Z,83.00
2022-10-06T05:35:24.179Z,81.98
2022-10-06T05:36:30.288Z,81.31
2022-10-06T05:37:34.739Z,81.38
2022-10-06T05:38:39.473Z,81.44
2022-10-06T05:39:43.211Z,80.92
2022-10-06T05:40:46.926Z,79.90
2022-10-06T05:41:50.839Z,79.50
2022-10-06T05:42:56.756Z,79.25
2022-10-06T05:44:00.354Z,79.63
2022-10-06T05:45:04.289Z,80.32
2022-10-06T05:46:11.214Z,80.61
2022-10-06T05:47:15.573Z,79.69
2022-10-06T05:48:20.601Z,79.50
2022-10-06T05:49:26.876Z,80.13
2022-10-06T05:50:35.495Z,79.71
2022-10-06T05:51:41.848Z,78.40
2022-10-06T05:52:46.046Z,79.02
2022-10-06T05:53:49.133Z,80.20
2022-10-06T05:54:51.708Z,80.13
2022-10-06T05:56:07.987Z,79.05
2022-10-06T05:57:14.572Z,78.76
2022-10-06T05:58:18.643Z,78.26
2022-10-06T05:59:26.410Z,78.58
2022-10-06T06:00:31.574Z,78.11
2022-10-06T06:01:39.492Z,77.63
2022-10-06T06:02:44.830Z,77.78
2022-10-06T06:03:49.761Z,78.03
2022-10-06T06:04:54.202Z,77.39
2022-10-06T06:05:57.778Z,77.72
2022-10-06T06:07:01.416Z,77.50
2022-10-06T06:08:05.196Z,78.10
2022-10-06T06:09:10.592Z,76.52
2022-10-06T06:10:14.619Z,76.12
2022-10-06T06:11:21.149Z,75.87
2022-10-06T06:12:24.647Z,74.79
2022-10-06T06:13:46.652Z,73.66
2022-10-06T06:15:10.210Z,71.14
2022-10-06T06:16:18.772Z,69.54
2022-10-06T06:17:23.487Z,67.36
2022-10-06T06:18:28.756Z,66.82
2022-10-06T06:19:33.620Z,66.27
2022-10-06T06:20:36.852Z,64.28
2022-10-06T06:21:40.671Z,64.35
2022-10-06T06:22:45.920Z,64.03
2022-10-06T06:23:51.610Z,63.85
2022-10-06T06:24:54.184Z,64.89
2022-10-06T06:26:02.107Z,64.89
2022-10-06T06:27:04.224Z,64.02
2022-10-06T06:28:08.412Z,64.15
2022-10-06T06:29:12.475Z,64.35
2022-10-06T06:30:18.498Z,64.97
2022-10-06T06:31:23.858Z,63.86
2022-10-06T06:32:28.316Z,64.99
2022-10-06T06:33:37.681Z,65.18
2022-10-06T06:34:41.084Z,64.98
2022-10-06T06:35:46.144Z,64.42
2022-10-06T06:36:54.138Z,64.64
2022-10-06T06:38:00.679Z,64.71
2022-10-06T06:39:07.305Z,64.19
2022-10-06T06:40:11.339Z,64.08
2022-10-06T06:41:17.530Z,64.01
2022-10-06T06:42:20.751Z,63.74
2022-10-06T06:43:25.455Z,62.76
2022-10-06T06:44:35.921Z,62.04
2022-10-06T06:45:40.226Z,63.21
2022-10-06T06:46:50.344Z,62.29
2022-10-06T06:47:56.892Z,62.27
2022-10-06T06:49:04.771Z,62.02
2022-10-06T06:50:12.178Z,62.35
2022-10-06T06:51:21.033Z,61.32
2022-10-06T06:52:26.345Z,59.78
2022-10-06T06:53:30.584Z,57.46
2022-10-06T06:54:37.130Z,55.80
2022-10-06T06:55:49.289Z,54.13
2022-10-06T06:56:57.070Z,52.25
2022-10-06T06:58:02.290Z,49.88
2022-10-06T06:59:09.623Z,47.21
2022-10-06T07:00:14.912Z,45.34
2022-10-06T07:01:20.752Z,43.36
2022-10-06T07:02:28.244Z,41.20
2022-10-06T07:03:56.578Z,39.98
2022-10-06T07:04:39.773Z,37.03
2022-10-06T07:05:47.118Z,36.65
2022-10-06T07:06:59.667Z,37.38
2022-10-06T07:08:04.819Z,37.44
2022-10-06T07:09:09.899Z,36.17
2022-10-06T07:10:13.823Z,34.73
2022-10-06T07:11:18.989Z,34.87
2022-10-06T07:12:22.087Z,37.29
2022-10-06T07:13:26.124Z,35.24
2022-10-06T07:14:29.829Z,34.96
2022-10-06T07:15:51.453Z,34.74
2022-10-06T07:17:14.232Z,33.05
2022-10-06T07:18:37.575Z,31.37
2022-10-06T07:19:48.080Z,31.17
2022-10-06T07:21:11.232Z,30.57
2022-10-06T07:22:35.296Z,31.16
2022-10-06T07:23:59.378Z,29.14
2022-10-06T07:25:14.962Z,28.00
2022-10-06T07:26:22.153Z,27.70
2022-10-06T07:27:30.133Z,27.74
2022-10-06T07:28:33.572Z,28.17
2022-10-06T07:29:36.758Z,27.88
2022-10-06T07:30:41.927Z,27.16
2022-10-06T07:31:50.965Z,27.57
2022-10-06T07:32:55.943Z,27.07
2022-10-06T07:34:02.896Z,26.76
2022-10-06T07:35:06.088Z,26.65
2022-10-06T07:36:12.919Z,27.64
2022-10-06T07:37:16.905Z,28.59
2022-10-06T07:38:23.738Z,28.86
2022-10-06T07:39:29.297Z,27.90
2022-10-06T07:40:33.627Z,27.79
2022-10-06T07:41:42.398Z,27.60
2022-10-06T07:42:48.921Z,27.86
2022-10-06T07:43:53.556Z,27.14
2022-10-06T07:45:15.232Z,28.77
2022-10-06T07:46:18.771Z,29.70
2022-10-06T07:47:24.226Z,28.53
2022-10-06T07:48:32.287Z,28.12
2022-10-06T07:49:39.174Z,27.59
2022-10-06T07:50:43.714Z,27.04
2022-10-06T07:51:49.841Z,26.51
2022-10-06T07:52:54.142Z,26.98
2022-10-06T07:53:57.465Z,27.26
2022-10-06T07:55:08.804Z,27.21
2022-10-06T07:56:16.088Z,26.12
2022-10-06T07:57:21.674Z,26.20
2022-10-06T07:58:24.899Z,26.21
2022-10-06T07:59:28.776Z,27.39
2022-10-06T08:01:36.459Z,28.43
2022-10-06T08:02:39.473Z,27.75
2022-10-06T08:03:44.754Z,27.91
2022-10-06T08:04:47.911Z,27.13
2022-10-06T08:05:52.000Z,26.99
2022-10-06T08:07:00.565Z,26.72
2022-10-06T08:08:07.116Z,26.84
2022-10-06T08:09:10.348Z,27.34
2022-10-06T08:10:16.611Z,26.99
2022-10-06T08:11:19.774Z,27.19
2022-10-06T08:12:35.401Z,27.12
2022-10-06T08:13:39.618Z,27.62
2022-10-06T08:14:42.954Z,27.87
2022-10-06T08:15:46.255Z,29.06
2022-10-06T08:16:48.683Z,29.48
2022-10-06T08:17:54.347Z,29.84
2022-10-06T08:19:01.089Z,29.70
2022-10-06T08:20:05.499Z,30.74
2022-10-06T08:21:09.061Z,29.44
2022-10-06T08:22:14.226Z,29.96
2022-10-06T08:23:17.744Z,29.84
2022-10-06T08:24:23.438Z,30.12
2022-10-06T08:25:28.000Z,30.14
2022-10-06T08:26:31.809Z,31.11
2022-10-06T08:27:35.206Z,31.84
2022-10-06T08:28:39.566Z,32.49
2022-10-06T08:29:43.273Z,33.49
2022-10-06T08:30:46.560Z,34.37
2022-10-06T08:31:50.138Z,33.55
2022-10-06T08:32:53.592Z,33.87
2022-10-06T08:33:58.548Z,33.01
2022-10-06T08:35:03.102Z,34.32
2022-10-06T08:36:09.334Z,34.77
2022-10-06T08:37:20.320Z,36.04
2022-10-06T08:38:26.658Z,36.27
2022-10-06T08:39:32.270Z,36.93
2022-10-06T08:40:36.185Z,37.13
2022-10-06T08:41:44.837Z,37.21
2022-10-06T08:42:53.013Z,38.83
2022-10-06T08:44:04.484Z,38.99
2022-10-06T08:45:15.207Z,39.06
2022-10-06T08:46:21.112Z,38.32
2022-10-06T08:47:27.704Z,38.16
2022-10-06T08:48:34.706Z,39.17
2022-10-06T08:49:38.576Z,38.58
2022-10-06T08:50:43.859Z,39.43
2022-10-06T08:51:53.449Z,40.26
2022-10-06T08:52:58.491Z,40.70
2022-10-06T08:54:03.981Z,40.18
2022-10-06T08:55:14.706Z,40.30
2022-10-06T08:56:19.954Z,40.10
2022-10-06T08:57:28.294Z,39.89
2022-10-06T08:58:46.652Z,40.71
2022-10-06T08:59:53.037Z,41.51
2022-10-06T09:00:59.896Z,40.71
2022-10-06T09:02:08.913Z,40.88
2022-10-06T09:03:22.168Z,41.09
2022-10-06T09:04:32.841Z,41.74
2022-10-06T09:05:38.867Z,41.39
2022-10-06T09:06:44.030Z,41.38
2022-10-06T09:07:55.302Z,41.39
2022-10-06T09:09:03.984Z,40.90
2022-10-06T09:10:10.459Z,41.51
2022-10-06T09:11:31.644Z,41.17
2022-10-06T09:12:43.475Z,41.66
2022-10-06T09:13:51.160Z,42.43
2022-10-06T09:15:14.222Z,42.51
2022-10-06T09:16:19.464Z,42.76
2022-10-06T09:17:31.071Z,43.12
2022-10-06T09:20:01.430Z,42.11
2022-10-06T09:21:08.904Z,42.57
2022-10-06T09:22:20.252Z,42.63
2022-10-06T09:23:43.287Z,42.45
2022-10-06T09:24:48.356Z,42.62
2022-10-06T09:25:51.741Z,42.32
2022-10-06T09:26:58.065Z,42.39
2022-10-06T09:28:03.681Z,42.43
2022-10-06T09:29:07.280Z,42.65
2022-10-06T09:30:13.783Z,42.11
2022-10-06T09:31:29.809Z,42.16
2022-10-06T09:32:36.457Z,42.50
2022-10-06T09:33:39.987Z,43.13
2022-10-06T09:34:46.100Z,44.47
2022-10-06T09:36:04.232Z,43.24
2022-10-06T09:38:23.041Z,42.93
2022-10-06T09:39:29.169Z,43.15
2022-10-06T09:40:37.474Z,42.98
2022-10-06T09:41:41.713Z,42.28
2022-10-06T09:42:45.427Z,41.67
2022-10-06T09:44:00.841Z,41.50
2022-10-06T09:45:08.303Z,41.63
2022-10-06T09:46:31.769Z,41.70
2022-10-06T09:47:47.497Z,42.74
2022-10-06T09:48:54.234Z,42.60
2022-10-06T09:50:05.670Z,42.49
2022-10-06T09:51:10.741Z,42.57
2022-10-06T09:52:19.975Z,43.13
2022-10-06T09:53:23.308Z,43.51
2022-10-06T09:54:26.700Z,42.85
2022-10-06T09:55:35.426Z,43.59
2022-10-06T09:56:47.546Z,43.43
2022-10-06T09:57:52.347Z,42.71
2022-10-06T09:58:56.486Z,42.44
2022-10-06T10:00:02.132Z,42.18
2022-10-06T10:01:08.888Z,41.70
2022-10-06T10:02:31.403Z,42.42
2022-10-06T10:03:51.437Z,41.76
2022-10-06T10:04:54.949Z,42.66
2022-10-06T10:06:02.275Z,42.56
2022-10-06T10:07:45.407Z,42.89
2022-10-06T10:08:48.704Z,43.32
2022-10-06T10:09:56.906Z,43.50
2022-10-06T10:11:13.888Z,42.95
2022-10-06T10:12:32.690Z,43.13
2022-10-06T10:13:43.146Z,42.64
2022-10-06T10:14:47.324Z,43.83
2022-10-06T10:15:53.140Z,43.36
2022-10-06T10:16:59.300Z,42.99
2022-10-06T10:18:04.062Z,42.72
2022-10-06T10:19:10.082Z,44.24
2022-10-06T10:20:24.344Z,44.40
2022-10-06T10:21:29.510Z,43.71
2022-10-06T10:22:37.829Z,43.69
2022-10-06T10:23:44.878Z,44.20
2022-10-06T10:24:56.858Z,44.40
2022-10-06T10:26:13.204Z,43.77
2022-10-06T10:27:23.387Z,43.67
2022-10-06T10:28:31.441Z,43.39
2022-10-06T10:29:43.031Z,42.79
2022-10-06T10:31:04.133Z,42.77
2022-10-06T10:32:13.552Z,42.89
2022-10-06T10:34:32.155Z,43.27
2022-10-06T10:35:45.469Z,42.81
2022-10-06T10:36:53.476Z,42.83
2022-10-06T10:38:00.731Z,42.99
2022-10-06T10:39:06.648Z,43.14
2022-10-06T10:40:24.221Z,42.68
2022-10-06T10:41:37.579Z,41.81
2022-10-06T10:42:44.110Z,42.10
2022-10-06T10:43:57.767Z,43.45
2022-10-06T10:45:02.401Z,42.77
2022-10-06T10:46:08.972Z,42.59
2022-10-06T10:48:34.297Z,42.43
2022-10-06T10:49:39.818Z,43.03
2022-10-06T10:50:44.251Z,42.58
2022-10-06T10:51:50.691Z,43.71
2022-10-06T10:52:58.687Z,43.09
2022-10-06T10:54:03.029Z,44.02
2022-10-06T10:55:09.242Z,43.15
2022-10-06T10:56:15.298Z,42.64
2022-10-06T10:57:20.646Z,42.19
2022-10-06T10:58:31.559Z,43.42
2022-10-06T10:59:35.900Z,42.69
2022-10-06T11:00:40.091Z,43.12
2022-10-06T11:01:48.773Z,43.70
2022-10-06T11:02:54.474Z,43.39
2022-10-06T11:03:58.706Z,43.70
2022-10-06T11:05:03.669Z,43.47
2022-10-06T11:06:16.296Z,43.00
2022-10-06T11:07:24.246Z,43.14
2022-10-06T11:08:30.152Z,44.01
2022-10-06T11:09:41.293Z,43.56
2022-10-06T11:10:48.548Z,42.97
2022-10-06T11:11:58.956Z,43.17
2022-10-06T11:13:05.848Z,42.66
2022-10-06T11:14:14.560Z,43.56
2022-10-06T11:15:28.679Z,43.07
2022-10-06T11:16:34.864Z,43.24
2022-10-06T11:17:45.544Z,43.53
2022-10-06T11:18:54.444Z,43.51
2022-10-06T11:20:03.605Z,43.79
2022-10-06T11:21:17.027Z,43.09
2022-10-06T11:22:24.851Z,43.33
2022-10-06T11:23:33.334Z,43.52
2022-10-06T11:24:50.056Z,43.42
2022-10-06T11:25:57.260Z,42.70
2022-10-06T11:27:02.344Z,43.03
2022-10-06T11:28:10.878Z,43.62
2022-10-06T11:29:24.495Z,43.29
2022-10-06T11:30:28.924Z,43.58
2022-10-06T11:31:33.644Z,43.85
2022-10-06T11:32:38.234Z,43.77
2022-10-06T11:33:45.403Z,44.27
2022-10-06T11:34:50.371Z,43.38
2022-10-06T11:35:54.491Z,43.44
2022-10-06T11:37:15.545Z,43.79
2022-10-06T11:38:35.631Z,44.06
2022-10-06T11:39:54.082Z,44.23
2022-10-06T11:41:16.310Z,44.65
2022-10-06T11:43:38.464Z,43.83
2022-10-06T11:44:46.342Z,43.93
2022-10-06T11:46:09.246Z,43.70
2022-10-06T11:47:15.400Z,43.82
2022-10-06T11:48:30.608Z,43.68
2022-10-06T11:49:41.108Z,43.87
2022-10-06T11:50:45.344Z,43.96
2022-10-06T11:51:48.852Z,43.25
2022-10-06T11:52:53.286Z,42.85
2022-10-06T11:54:00.668Z,42.67
2022-10-06T11:55:09.916Z,43.29
2022-10-06T11:56:18.151Z,43.50
2022-10-06T11:57:31.354Z,43.56
2022-10-06T11:58:53.851Z,44.23
2022-10-06T11:59:59.031Z,43.98
2022-10-06T12:01:02.032Z,44.37
2022-10-06T12:02:08.407Z,44.30
2022-10-06T12:03:32.095Z,44.11
2022-10-06T12:04:34.347Z,43.84
2022-10-06T12:06:46.684Z,43.96
2022-10-06T12:07:58.554Z,44.19
2022-10-06T12:09:02.780Z,42.78
2022-10-06T12:10:25.097Z,43.30
2022-10-06T12:11:39.047Z,43.87
2022-10-06T12:12:47.792Z,43.91
2022-10-06T12:14:49.508Z,43.71
2022-10-06T12:17:31.354Z,43.39
2022-10-06T12:18:43.215Z,43.50
2022-10-06T12:19:53.509Z,43.54
2022-10-06T12:21:18.216Z,43.48
2022-10-06T12:22:34.777Z,43.57
2022-10-06T12:23:45.177Z,43.30
2022-10-06T12:25:04.453Z,43.21
2022-10-06T12:26:27.518Z,43.30
2022-10-06T12:27:51.727Z,43.81
2022-10-06T12:28:57.886Z,43.34
2022-10-06T12:30:12.044Z,43.15
2022-10-06T12:31:18.506Z,44.34
2022-10-06T12:32:36.497Z,43.46
2022-10-06T12:33:42.728Z,43.52
2022-10-06T12:35:03.782Z,44.25
2022-10-06T12:36:18.255Z,43.78
2022-10-06T12:37:23.418Z,43.59
2022-10-06T12:38:37.408Z,43.92
2022-10-06T12:39:40.455Z,43.93
2022-10-06T12:40:52.003Z,44.22
2022-10-06T12:42:03.760Z,44.57
2022-10-06T12:43:14.802Z,44.18
2022-10-06T12:44:21.956Z,44.39
2022-10-06T12:45:28.794Z,44.44
2022-10-06T12:46:39.581Z,44.13
2022-10-06T12:47:43.639Z,44.22
2022-10-06T12:48:56.228Z,44.24
2022-10-06T12:50:02.391Z,44.35
2022-10-06T12:51:20.081Z,44.29
2022-10-06T12:52:44.572Z,44.78
2022-10-06T12:54:07.601Z,43.84
2022-10-06T12:55:28.340Z,43.71
2022-10-06T12:56:34.758Z,44.04
2022-10-06T12:57:48.185Z,44.04
2022-10-06T12:58:50.960Z,44.37
2022-10-06T12:59:55.208Z,44.41
2022-10-06T13:01:05.123Z,44.32
2022-10-06T13:02:09.739Z,45.08
2022-10-06T13:03:18.049Z,45.14
2022-10-06T13:04:35.968Z,44.45
2022-10-06T13:05:41.538Z,44.67
2022-10-06T13:06:47.724Z,44.58
2022-10-06T13:08:02.446Z,44.79
2022-10-06T13:09:07.813Z,43.72
2022-10-06T13:10:15.425Z,44.33
2022-10-06T13:11:22.587Z,44.87
2022-10-06T13:12:29.010Z,45.04
2022-10-06T13:13:35.118Z,44.52
2022-10-06T13:14:38.498Z,45.66
2022-10-06T13:15:43.595Z,44.94
2022-10-06T13:16:47.790Z,45.31
2022-10-06T13:17:53.537Z,45.40
2022-10-06T13:18:58.495Z,44.99
2022-10-06T13:20:01.393Z,45.04
2022-10-06T13:21:07.396Z,44.51
2022-10-06T13:22:15.123Z,44.88
2022-10-06T13:23:38.354Z,44.38
2022-10-06T13:24:42.101Z,44.34
2022-10-06T13:25:47.317Z,44.60
2022-10-06T13:26:54.619Z,44.72
2022-10-06T13:27:58.476Z,44.57
2022-10-06T13:29:02.000Z,44.43
2022-10-06T13:30:20.746Z,44.61
2022-10-06T13:31:36.719Z,44.73
2022-10-06T13:32:41.174Z,44.38
2022-10-06T13:33:48.920Z,44.45
2022-10-06T13:34:52.540Z,44.08
2022-10-06T13:35:56.139Z,44.28
2022-10-06T13:37:01.232Z,44.17
2022-10-06T13:38:06.740Z,43.96
2022-10-06T13:39:10.740Z,44.06
2022-10-06T13:40:21.876Z,43.85
2022-10-06T13:41:27.209Z,43.95
2022-10-06T13:42:30.667Z,44.17
2022-10-06T13:43:39.466Z,44.24
2022-10-06T13:44:42.772Z,44.48
2022-10-06T13:45:47.201Z,44.78
2022-10-06T13:46:57.503Z,45.59
2022-10-06T13:48:06.446Z,44.91
2022-10-06T13:49:24.272Z,45.37
2022-10-06T13:50:26.732Z,45.07
2022-10-06T13:51:31.907Z,45.20
2022-10-06T13:52:42.829Z,45.65
2022-10-06T13:53:47.499Z,45.86
2022-10-06T13:54:54.966Z,45.79
2022-10-06T13:55:59.390Z,45.97
2022-10-06T13:57:03.051Z,46.27
2022-10-06T13:58:09.621Z,46.36
2022-10-06T13:59:31.607Z,46.02
2022-10-06T14:00:38.101Z,45.73
2022-10-06T14:01:41.437Z,45.99
2022-10-06T14:02:48.560Z,45.77
2022-10-06T14:03:52.869Z,46.02
2022-10-06T14:05:14.231Z,45.84
2022-10-06T14:06:18.668Z,45.95
2022-10-06T14:07:21.441Z,46.26
2022-10-06T14:08:27.150Z,46.16
2022-10-06T14:09:32.536Z,46.61
2022-10-06T14:10:44.528Z,46.23
2022-10-06T14:11:48.957Z,46.40
2022-10-06T14:12:55.482Z,46.90
2022-10-06T14:13:59.914Z,46.77
2022-10-06T14:15:03.675Z,46.48
2022-10-06T14:16:08.620Z,46.56
2022-10-06T14:17:13.457Z,46.61
2022-10-06T14:18:25.635Z,46.60
2022-10-06T14:19:40.000Z,46.90
2022-10-06T14:20:47.696Z,46.91
2022-10-06T14:21:51.302Z,47.22
2022-10-06T14:22:56.573Z,47.35
2022-10-06T14:24:03.654Z,47.59
2022-10-06T14:25:08.503Z,47.96
2022-10-06T14:26:13.707Z,48.00
2022-10-06T14:27:17.289Z,48.32
2022-10-06T14:28:20.981Z,48.65
2022-10-06T14:29:25.754Z,48.17
2022-10-06T14:30:29.160Z,48.35
2022-10-06T14:31:35.371Z,48.20
2022-10-06T14:32:40.430Z,47.93
2022-10-06T14:33:47.477Z,47.99
2022-10-06T14:34:52.686Z,48.36